Terminal Aerodrome Forecast
Issued by NWS

Home | Current Version | Previous Version | Text Only | Print | Product List | Glossary On
Versions: 1 2 3 4 5 6 7 8 9 10 11 12 13
000
FTUS42 KMLB 042333
TAFTIX
TAF
KTIX 042333Z 0500/0524 30005KT P6SM FEW040 BKN100
     FM050300 VRB03KT P6SM SCT250
     FM051400 22006KT P6SM BKN250
     FM051800 12008KT P6SM VCSH SCT035 SCT080 PROB30 0518/0522 P6SM
      TS BKN040CB
     FM052200 15007KT P6SM VCSH BKN060 BKN250
      AMD NOT SKED 0502/0512=

USA.gov is the U.S. government's official web portal to all federal, state and local government web resources and services.